Time;durP1;ratioP1;P1;durP2;ratioP2;P2;SDS_P1;SDS_P2;PMS_P1;PMS_P2;Temp;Humidity;BMP_temperature;BMP_pressure;BME280_temperature;BME280_humidity;BME280_pressure;Samples;Min_cycle;Max_cycle;Signal;HPM_P1;HPM_P2
2023/06/19 00:00:43;;;;;;;7.97;7.20;;;;;;;22.82;56.06;99305.63;5071203;28;20090;-75
2023/06/19 00:03:09;;;;;;;7.70;6.90;;;;;;;22.54;55.87;99249.53;5073372;28;20031;-76
2023/06/19 00:05:34;;;;;;;7.10;6.25;;;;;;;22.61;56.03;99270.81;5071817;28;20125;-76
2023/06/19 00:08:00;;;;;;;7.43;6.72;;;;;;;22.77;56.09;99302.09;5072364;28;20413;-75
2023/06/19 00:10:25;;;;;;;7.82;7.00;;;;;;;22.61;56.11;99273.50;5072062;28;20024;-76
2023/06/19 00:12:51;;;;;;;8.07;7.32;;;;;;;22.88;56.01;99303.78;5070230;28;20116;-75
2023/06/19 00:15:16;;;;;;;8.02;6.63;;;;;;;22.51;55.99;99245.47;5071688;28;20097;-75
2023/06/19 00:17:42;;;;;;;6.90;6.30;;;;;;;22.92;56.14;99306.75;5071884;28;20032;-76
2023/06/19 00:20:09;;;;;;;6.88;6.28;;;;;;;22.93;56.00;99303.78;5071940;28;20027;-75
2023/06/19 00:22:34;;;;;;;7.40;6.70;;;;;;;22.37;56.18;99236.28;5072209;28;20056;-75
2023/06/19 00:24:59;;;;;;;6.53;5.93;;;;;;;22.87;56.09;99312.94;5073733;28;20091;-76
2023/06/19 00:27:26;;;;;;;7.75;7.03;;;;;;;22.82;56.12;99304.81;5073667;28;20024;-76
2023/06/19 00:29:51;;;;;;;8.20;6.70;;;;;;;22.48;56.09;99262.16;5071907;28;20035;-75
2023/06/19 00:32:17;;;;;;;7.03;6.40;;;;;;;22.79;56.06;99311.50;5071722;28;20017;-75
2023/06/19 00:34:42;;;;;;;9.10;5.85;;;;;;;22.68;55.85;99282.13;5070582;28;20402;-75
2023/06/19 00:37:09;;;;;;;7.40;6.70;;;;;;;22.42;55.83;99247.06;5071445;28;20511;-74
2023/06/19 00:39:35;;;;;;;7.03;6.43;;;;;;;22.46;55.75;99240.06;5071543;28;20417;-74
2023/06/19 00:42:00;;;;;;;9.52;7.00;;;;;;;22.75;55.90;99296.16;5071378;28;20029;-75
2023/06/19 00:44:26;;;;;;;7.43;6.47;;;;;;;22.89;55.93;99316.16;5071348;28;20478;-75
2023/06/19 00:46:57;;;;;;;8.60;6.50;;;;;;;22.55;55.93;99278.06;5071596;28;20044;-75
2023/06/19 00:49:24;;;;;;;6.88;6.25;;;;;;;22.55;55.85;99269.97;5071321;28;20023;-75
2023/06/19 00:51:52;;;;;;;6.85;6.10;;;;;;;22.81;55.89;99306.72;5071482;28;20028;-75
2023/06/19 00:54:18;;;;;;;6.57;5.95;;;;;;;22.78;55.88;99304.50;5071265;28;20166;-75
2023/06/19 00:56:44;;;;;;;6.75;5.85;;;;;;;22.45;55.78;99259.97;5069936;28;20445;-74
2023/06/19 00:59:20;;;;;;;9.20;7.07;;;;;;;22.90;55.76;99319.66;5071634;28;20653;-75
2023/06/19 01:01:46;;;;;;;7.50;6.78;;;;;;;22.38;55.82;99245.97;5071318;28;20110;-75
2023/06/19 01:04:12;;;;;;;7.50;6.80;;;;;;;22.42;55.94;99240.88;5070067;28;20405;-75
2023/06/19 01:06:57;;;;;;;9.18;6.78;;;;;;;22.94;55.78;99323.44;5071205;28;20035;-75
2023/06/19 01:09:29;;;;;;;7.00;6.30;;;;;;;22.92;55.70;99336.38;5071317;28;20032;-75
2023/06/19 01:12:01;;;;;;;7.28;6.35;;;;;;;22.93;55.69;99322.63;5071101;28;20409;-75
2023/06/19 01:14:36;;;;;;;8.77;6.55;;;;;;;22.88;55.80;99316.41;5071029;28;20028;-75
2023/06/19 01:17:02;;;;;;;6.72;6.03;;;;;;;22.92;55.73;99320.22;5071316;28;20107;-76
2023/06/19 01:19:28;;;;;;;6.63;6.03;;;;;;;22.48;55.59;99253.25;5071312;28;20052;-75
2023/06/19 01:21:53;;;;;;;7.28;6.10;;;;;;;22.92;55.56;99315.63;5071053;28;20083;-76
2023/06/19 01:24:19;;;;;;;6.55;5.90;;;;;;;22.91;55.55;99332.06;5071525;28;20105;-76
2023/06/19 01:26:47;;;;;;;7.63;6.43;;;;;;;22.74;55.49;99308.81;5075209;28;20036;-74
2023/06/19 01:29:18;;;;;;;6.50;5.78;;;;;;;22.87;55.56;99329.06;5075089;28;20029;-78
2023/06/19 01:31:54;;;;;;;7.20;6.55;;;;;;;22.45;55.65;99259.97;5075638;28;20033;-75
2023/06/19 01:34:21;;;;;;;10.60;7.20;;;;;;;22.51;55.55;99266.19;5075243;28;20020;-76
2023/06/19 01:36:51;;;;;;;7.22;6.00;;;;;;;22.86;55.57;99327.47;5074825;28;20024;-76
2023/06/19 01:39:18;;;;;;;6.63;6.03;;;;;;;22.39;55.62;99260.22;5074774;28;20052;-74
2023/06/19 01:41:46;;;;;;;8.75;6.95;;;;;;;22.54;55.60;99279.13;5075044;28;20055;-75
2023/06/19 01:44:11;;;;;;;6.85;6.25;;;;;;;22.61;55.25;99276.19;5075093;28;20420;-77
2023/06/19 01:46:37;;;;;;;9.82;5.95;;;;;;;22.57;55.17;99273.22;5074820;28;20024;-74
2023/06/19 01:49:07;;;;;;;8.88;5.88;;;;;;;22.87;55.13;99320.19;5074881;28;20099;-76
2023/06/19 01:51:32;;;;;;;6.32;5.78;;;;;;;22.89;55.16;99329.63;5074628;28;20165;-77
2023/06/19 01:53:58;;;;;;;6.88;6.28;;;;;;;22.87;55.01;99306.72;5074516;28;20095;-74
2023/06/19 01:56:24;;;;;;;7.13;6.35;;;;;;;22.63;54.92;99272.16;5074560;28;20462;-74
2023/06/19 01:58:49;;;;;;;7.00;6.40;;;;;;;22.74;54.84;99289.97;5074431;28;20095;-74
2023/06/19 02:01:14;;;;;;;6.72;5.97;;;;;;;22.38;55.01;99234.41;5073103;28;20556;-76
2023/06/19 02:03:40;;;;;;;7.05;6.35;;;;;;;22.72;54.87;99289.41;5074353;28;20051;-74
2023/06/19 02:06:05;;;;;;;7.57;6.35;;;;;;;22.71;54.74;99287.81;5074422;28;20405;-77
2023/06/19 02:08:31;;;;;;;8.05;6.57;;;;;;;22.54;54.96;99260.28;5074306;28;20016;-74
2023/06/19 02:10:56;;;;;;;7.35;5.80;;;;;;;22.79;55.01;99297.25;5074459;28;20035;-76
2023/06/19 02:13:21;;;;;;;7.50;6.03;;;;;;;22.93;54.97;99329.91;5073010;28;20024;-77
2023/06/19 02:15:47;;;;;;;8.38;5.85;;;;;;;22.58;54.96;99277.53;5074347;28;20032;-76
2023/06/19 02:18:12;;;;;;;7.97;6.38;;;;;;;22.94;54.91;99334.22;5074232;28;20508;-75
2023/06/19 02:20:38;;;;;;;8.32;6.80;;;;;;;22.60;55.06;99290.72;5073971;28;20083;-75
2023/06/19 02:23:04;;;;;;;7.18;6.47;;;;;;;22.91;55.14;99326.66;5074130;28;20032;-76
2023/06/19 02:25:29;;;;;;;7.65;6.95;;;;;;;22.81;55.04;99327.44;5073974;28;20471;-75
2023/06/19 02:27:55;;;;;;;7.25;6.55;;;;;;;22.38;55.23;99262.09;5074042;28;20494;-77
2023/06/19 02:30:20;;;;;;;7.13;6.50;;;;;;;22.67;55.17;99319.00;5072736;28;20383;-75
2023/06/19 02:32:45;;;;;;;6.55;5.88;;;;;;;22.38;55.18;99280.13;5073781;28;20029;-76
2023/06/19 02:35:11;;;;;;;9.10;6.32;;;;;;;22.78;55.22;99346.78;5074209;28;20068;-76
2023/06/19 02:37:37;;;;;;;10.68;7.43;;;;;;;22.43;55.11;99305.16;5073142;28;20086;-76
2023/06/19 02:40:04;;;;;;;8.35;6.00;;;;;;;22.62;55.05;99339.69;5073839;28;20028;-76
2023/06/19 02:42:30;;;;;;;6.95;6.25;;;;;;;22.15;55.40;99281.31;5073633;28;20021;-76
2023/06/19 02:45:02;;;;;;;6.78;6.10;;;;;;;22.15;55.38;99284.00;5073949;28;20035;-76
2023/06/19 02:47:28;;;;;;;6.15;5.55;;;;;;;22.20;55.59;99292.09;5073488;28;20031;-76
2023/06/19 02:49:53;;;;;;;8.50;6.18;;;;;;;22.13;55.43;99272.69;5073423;28;20028;-76
2023/06/19 02:52:18;;;;;;;7.20;6.18;;;;;;;22.50;55.48;99353.38;5073594;28;20024;-75
2023/06/19 02:54:44;;;;;;;7.07;6.38;;;;;;;22.11;55.49;99312.47;5073469;28;20450;-75
2023/06/19 02:57:09;;;;;;;7.18;6.45;;;;;;;22.17;55.71;99330.25;5073268;28;20102;-76
2023/06/19 02:59:35;;;;;;;6.43;5.88;;;;;;;22.33;55.95;99355.41;5072602;28;20025;-76
2023/06/19 03:02:00;;;;;;;7.25;6.53;;;;;;;22.44;55.92;99365.16;5074296;28;20497;-75
2023/06/19 03:04:25;;;;;;;7.32;6.63;;;;;;;22.31;55.83;99347.59;5072336;28;20115;-76
2023/06/19 03:06:51;;;;;;;6.68;5.65;;;;;;;22.43;55.83;99361.66;5073676;28;20024;-73
2023/06/19 03:09:16;;;;;;;7.90;6.43;;;;;;;22.28;55.66;99331.94;5073285;28;20103;-73
2023/06/19 03:11:42;;;;;;;8.73;6.18;;;;;;;22.45;55.73;99364.09;5073491;28;20107;-74
2023/06/19 03:14:07;;;;;;;7.60;6.65;;;;;;;22.04;55.82;99301.13;5073458;28;20028;-75
2023/06/19 03:16:34;;;;;;;7.72;7.03;;;;;;;22.38;55.74;99344.69;5073113;28;20489;-76
2023/06/19 03:19:00;;;;;;;7.28;6.57;;;;;;;22.29;55.78;99338.94;5072945;28;20036;-75
2023/06/19 03:21:26;;;;;;;8.50;6.10;;;;;;;22.44;55.78;99346.34;5073180;28;20081;-76
2023/06/19 03:23:51;;;;;;;8.05;6.13;;;;;;;22.46;55.69;99346.88;5072720;28;20033;-77
2023/06/19 03:26:18;;;;;;;6.68;5.97;;;;;;;21.87;55.63;99256.38;5072643;28;20052;-75
2023/06/19 03:28:43;;;;;;;6.53;5.90;;;;;;;22.03;55.68;99275.31;5072698;28;20036;-77
2023/06/19 03:31:09;;;;;;;7.22;6.05;;;;;;;22.20;55.74;99308.22;5072724;28;20094;-76
2023/06/19 03:33:34;;;;;;;7.32;6.03;;;;;;;22.43;55.65;99345.53;5071292;28;20035;-77
2023/06/19 03:36:00;;;;;;;7.47;6.20;;;;;;;21.89;55.71;99256.94;5072588;28;20025;-76
2023/06/19 03:38:25;;;;;;;6.85;6.25;;;;;;;22.04;55.56;99285.81;5072571;28;20086;-76
2023/06/19 03:40:50;;;;;;;6.50;5.82;;;;;;;22.31;55.70;99336.84;5072578;28;20036;-76
2023/06/19 03:43:16;;;;;;;6.93;5.82;;;;;;;22.28;55.62;99323.06;5071283;28;20475;-76
2023/06/19 03:45:42;;;;;;;6.28;5.78;;;;;;;22.25;55.47;99324.41;5072515;28;20023;-76
2023/06/19 03:48:07;;;;;;;7.93;6.05;;;;;;;22.08;55.50;99292.28;5071595;28;20463;-74
2023/06/19 03:50:33;;;;;;;6.53;5.90;;;;;;;22.46;55.29;99349.56;5072629;28;20025;-75
2023/06/19 03:52:58;;;;;;;9.63;6.15;;;;;;;22.43;55.40;99358.97;5072465;28;20017;-74
2023/06/19 03:55:24;;;;;;;7.30;5.85;;;;;;;22.08;55.32;99299.56;5072464;28;20493;-76
2023/06/19 03:57:49;;;;;;;7.07;6.13;;;;;;;22.00;55.14;99284.69;5072271;28;20072;-75
2023/06/19 04:00:18;;;;;;;6.53;5.93;;;;;;;22.04;55.06;99283.13;5072483;28;20047;-76
2023/06/19 04:02:46;;;;;;;7.53;6.78;;;;;;;22.35;54.98;99335.25;5072164;28;20390;-74
2023/06/19 04:05:11;;;;;;;9.25;6.53;;;;;;;22.56;54.81;99360.38;5070937;28;20530;-75
2023/06/19 04:07:37;;;;;;;7.05;6.22;;;;;;;22.37;54.75;99313.47;5072166;28;20060;-76
2023/06/19 04:10:03;;;;;;;7.93;6.30;;;;;;;22.59;54.63;99353.69;5072131;28;20024;-76
2023/06/19 04:12:28;;;;;;;6.35;5.72;;;;;;;22.30;54.58;99320.97;5070843;28;20102;-75
2023/06/19 04:14:53;;;;;;;7.15;6.25;;;;;;;22.52;54.29;99335.88;5072077;28;20413;-77
2023/06/19 04:17:19;;;;;;;7.03;5.15;;;;;;;22.29;54.36;99303.19;5070569;28;20086;-76
2023/06/19 04:19:44;;;;;;;6.53;5.93;;;;;;;22.45;54.27;99312.97;5071945;28;20025;-76
2023/06/19 04:22:10;;;;;;;8.18;6.05;;;;;;;22.20;54.26;99284.84;5070517;28;20074;-75
2023/06/19 04:24:35;;;;;;;7.05;5.85;;;;;;;22.78;54.32;99373.69;5071785;28;20421;-76
2023/06/19 04:27:01;;;;;;;7.38;5.95;;;;;;;22.79;54.24;99381.50;5071795;28;20052;-76
2023/06/19 04:29:31;;;;;;;6.55;5.95;;;;;;;22.54;54.30;99343.69;5071703;28;20064;-77
2023/06/19 04:31:58;;;;;;;7.95;6.35;;;;;;;22.64;54.34;99359.91;5071762;28;20490;-76
2023/06/19 04:34:23;;;;;;;7.10;6.38;;;;;;;22.35;54.69;99326.38;5071734;28;20036;-74
2023/06/19 04:36:48;;;;;;;7.82;6.30;;;;;;;22.38;54.49;99320.47;5071669;28;20085;-76
2023/06/19 04:39:15;;;;;;;7.32;6.63;;;;;;;22.16;54.70;99291.81;5071415;28;20398;-76
2023/06/19 04:41:43;;;;;;;7.25;6.65;;;;;;;22.76;54.80;99392.00;5071433;28;20024;-76
2023/06/19 04:44:11;;;;;;;8.43;6.93;;;;;;;22.41;54.92;99325.34;5071682;28;20493;-76
2023/06/19 04:46:37;;;;;;;7.45;6.63;;;;;;;22.69;54.93;99386.84;5071520;28;20051;-75
2023/06/19 04:49:03;;;;;;;7.40;6.60;;;;;;;22.37;54.91;99330.41;5071341;28;20036;-77
2023/06/19 04:51:30;;;;;;;7.97;6.85;;;;;;;22.70;55.08;99387.66;5071394;28;20024;-74
2023/06/19 04:53:55;;;;;;;8.32;6.72;;;;;;;22.59;55.16;99369.81;5070108;28;20077;-76
2023/06/19 04:56:21;;;;;;;7.70;7.00;;;;;;;22.26;55.06;99327.91;5071444;28;20024;-73
2023/06/19 04:58:47;;;;;;;8.25;7.13;;;;;;;22.57;54.88;99367.41;5071352;28;20079;-78
2023/06/19 05:01:13;;;;;;;7.45;6.60;;;;;;;22.23;54.87;99325.72;5071320;28;20412;-77
2023/06/19 05:03:39;;;;;;;9.13;7.07;;;;;;;22.24;54.59;99335.41;5070980;28;20390;-76
2023/06/19 05:06:05;;;;;;;6.85;6.25;;;;;;;22.35;54.75;99329.06;5071147;28;20028;-75
2023/06/19 05:08:30;;;;;;;7.82;7.13;;;;;;;22.42;54.91;99346.59;5071185;28;20029;-75
2023/06/19 05:10:57;;;;;;;9.95;6.85;;;;;;;22.56;54.87;99359.59;5071322;28;20056;-75
2023/06/19 05:13:23;;;;;;;6.88;6.18;;;;;;;22.33;54.59;99309.69;5071093;28;20554;-77
2023/06/19 05:15:48;;;;;;;8.00;6.47;;;;;;;22.81;54.75;99386.66;5071315;28;20061;-75
2023/06/19 05:18:14;;;;;;;7.78;6.97;;;;;;;22.71;54.71;99365.84;5071254;28;20085;-76
2023/06/19 05:20:39;;;;;;;7.25;6.60;;;;;;;22.44;54.62;99331.00;5071206;28;20103;-76
2023/06/19 05:23:05;;;;;;;10.05;7.13;;;;;;;22.40;54.55;99316.44;5071108;28;20029;-76
2023/06/19 05:25:30;;;;;;;7.88;6.63;;;;;;;22.92;54.44;99384.81;5071377;28;20024;-74
2023/06/19 05:27:56;;;;;;;7.32;6.60;;;;;;;22.96;54.53;99386.72;5069952;28;20093;-76
2023/06/19 05:30:21;;;;;;;7.95;6.50;;;;;;;23.01;54.33;99392.13;5071203;28;20032;-73
2023/06/19 05:32:47;;;;;;;8.73;6.68;;;;;;;23.08;54.42;99386.53;5069360;28;20025;-75
2023/06/19 05:35:12;;;;;;;7.40;6.65;;;;;;;22.88;54.35;99364.88;5069390;28;20028;-76
2023/06/19 05:37:39;;;;;;;6.75;6.15;;;;;;;22.73;54.18;99312.56;5070505;28;20031;-76
2023/06/19 05:40:05;;;;;;;7.93;6.10;;;;;;;23.02;54.16;99350.66;5069945;28;20044;-77
2023/06/19 05:42:31;;;;;;;7.38;6.15;;;;;;;22.62;53.98;99293.94;5070424;28;20029;-77
2023/06/19 05:44:56;;;;;;;7.00;6.13;;;;;;;22.72;53.95;99307.44;5070844;28;20467;-75
2023/06/19 05:47:25;;;;;;;6.80;6.20;;;;;;;22.91;53.95;99332.84;5071083;28;20035;-76
2023/06/19 05:49:51;;;;;;;8.73;6.45;;;;;;;23.24;53.84;99368.53;5069771;28;20394;-75
2023/06/19 05:52:16;;;;;;;8.25;6.80;;;;;;;23.36;54.01;99393.38;5066945;28;20027;-75
2023/06/19 05:54:42;;;;;;;8.00;5.80;;;;;;;23.16;53.76;99359.09;5070550;28;20193;-75
2023/06/19 05:57:07;;;;;;;9.80;6.25;;;;;;;23.43;53.41;99402.00;5070374;28;20048;-76
2023/06/19 05:59:33;;;;;;;8.00;6.05;;;;;;;22.98;53.26;99319.16;5071281;28;20054;-76
2023/06/19 06:01:58;;;;;;;6.90;6.20;;;;;;;22.69;53.09;99273.00;5070273;28;20035;-76
2023/06/19 06:04:23;;;;;;;6.63;5.97;;;;;;;23.24;53.20;99345.09;5070369;28;20119;-74
2023/06/19 06:06:49;;;;;;;6.22;5.63;;;;;;;23.27;53.26;99349.97;5068830;28;20504;-76
2023/06/19 06:09:16;;;;;;;7.32;6.22;;;;;;;23.64;53.12;99390.22;5070272;28;20405;-78
2023/06/19 06:11:42;;;;;;;7.63;6.30;;;;;;;23.50;53.05;99353.25;5070155;28;20025;-75
2023/06/19 06:14:07;;;;;;;7.00;6.35;;;;;;;23.87;52.82;99396.22;5073857;28;20493;-76
2023/06/19 06:16:33;;;;;;;6.13;5.53;;;;;;;23.54;53.00;99340.84;5073903;28;20094;-75
2023/06/19 06:18:58;;;;;;;9.32;6.78;;;;;;;23.36;52.93;99297.19;5073934;28;20029;-76
2023/06/19 06:21:25;;;;;;;7.43;6.60;;;;;;;23.72;53.04;99343.88;5072031;28;20501;-78
2023/06/19 06:23:51;;;;;;;7.00;6.18;;;;;;;24.13;52.13;99405.94;5072379;28;20030;-76
2023/06/19 06:26:16;;;;;;;6.55;5.93;;;;;;;24.16;52.22;99401.88;5073205;28;20119;-76
2023/06/19 06:28:41;;;;;;;7.13;6.20;;;;;;;24.17;51.72;99403.50;5072504;28;20575;-75
2023/06/19 06:31:07;;;;;;;6.97;6.28;;;;;;;23.77;51.70;99335.78;5073051;28;20081;-76
2023/06/19 06:33:32;;;;;;;9.02;6.53;;;;;;;24.23;51.64;99400.53;5072132;28;20086;-75
2023/06/19 06:35:59;;;;;;;8.18;6.15;;;;;;;24.30;51.92;99403.78;5071290;28;20032;-75
2023/06/19 06:38:24;;;;;;;7.00;6.30;;;;;;;24.22;51.29;99388.13;5072500;28;20036;-75
2023/06/19 06:40:50;;;;;;;7.15;6.43;;;;;;;24.01;51.53;99344.16;5067899;28;20029;-74
2023/06/19 06:43:16;;;;;;;8.00;6.72;;;;;;;24.48;51.72;99399.72;5071661;28;20035;-75
2023/06/19 06:45:42;;;;;;;8.18;6.50;;;;;;;23.85;51.40;99320.97;5068154;28;20036;-75
2023/06/19 06:48:08;;;;;;;6.50;5.80;;;;;;;24.52;50.92;99400.78;5069717;28;20107;-76
2023/06/19 06:50:34;;;;;;;7.53;6.75;;;;;;;24.53;50.59;99415.13;5073066;28;20024;-77
2023/06/19 06:53:00;;;;;;;7.28;6.00;;;;;;;24.45;50.61;99384.06;5070096;28;20489;-76
2023/06/19 06:55:25;;;;;;;9.95;8.50;;;;;;;24.69;50.74;99406.72;5073132;28;20025;-76
2023/06/19 06:57:51;;;;;;;8.80;7.90;;;;;;;24.63;51.30;99380.81;5072695;28;20544;-77
2023/06/19 07:00:18;;;;;;;11.40;7.75;;;;;;;24.59;51.16;99365.44;5071322;28;20024;-76
2023/06/19 07:02:44;;;;;;;6.65;5.97;;;;;;;24.91;51.18;99409.09;5062092;28;20482;-77
2023/06/19 07:05:10;;;;;;;9.75;8.75;;;;;;;24.89;51.23;99396.94;5066714;28;20036;-76
2023/06/19 07:07:36;;;;;;;9.95;8.85;;;;;;;25.05;51.37;99413.94;5068164;28;20028;-78
2023/06/19 07:10:01;;;;;;;8.90;8.10;;;;;;;24.66;50.95;99349.75;5068636;28;20020;-76
2023/06/19 07:12:27;;;;;;;7.70;6.82;;;;;;;24.78;50.91;99357.56;5067897;28;20024;-76
2023/06/19 07:14:56;;;;;;;8.68;6.97;;;;;;;25.15;51.07;99413.88;5068649;28;20408;-76
2023/06/19 07:17:21;;;;;;;9.35;8.45;;;;;;;24.80;50.85;99356.19;5069417;28;20028;-76
2023/06/19 07:19:47;;;;;;;9.07;8.18;;;;;;;25.03;50.68;99390.69;5069013;28;20408;-77
2023/06/19 07:22:14;;;;;;;8.50;7.70;;;;;;;24.94;50.19;99365.31;5065304;28;20028;-75
2023/06/19 07:24:40;;;;;;;11.93;10.70;;;;;;;24.96;50.15;99365.03;5065844;28;20077;-75
2023/06/19 07:27:06;;;;;;;10.00;8.98;;;;;;;25.33;49.98;99416.00;5071642;28;20034;-76
2023/06/19 07:29:32;;;;;;;10.57;8.98;;;;;;;25.29;49.94;99406.81;5060632;28;20413;-76
2023/06/19 07:31:58;;;;;;;7.90;7.10;;;;;;;25.08;49.88;99379.06;5069868;28;20082;-76
2023/06/19 07:34:23;;;;;;;7.30;6.43;;;;;;;25.27;49.20;99388.19;5072327;28;20024;-77
2023/06/19 07:36:48;;;;;;;7.82;7.03;;;;;;;25.14;48.65;99361.75;5072693;28;20467;-76
2023/06/19 07:39:14;;;;;;;7.45;6.20;;;;;;;25.38;48.17;99388.13;5071569;28;20031;-76
2023/06/19 07:41:40;;;;;;;7.47;6.72;;;;;;;25.59;47.66;99416.66;5069157;28;20082;-76
2023/06/19 07:44:05;;;;;;;9.52;8.40;;;;;;;25.09;47.25;99325.84;5067915;28;20028;-76
2023/06/19 07:46:31;;;;;;;9.95;6.30;;;;;;;25.76;47.02;99422.53;5071445;28;20178;-75
2023/06/19 07:48:57;;;;;;;9.25;8.43;;;;;;;25.78;46.88;99417.66;5065469;28;20085;-76
2023/06/19 07:51:22;;;;;;;8.57;7.47;;;;;;;25.81;47.30;99421.69;5068351;28;20024;-75
2023/06/19 07:53:47;;;;;;;7.38;6.68;;;;;;;25.50;46.57;99364.28;5071462;28;20029;-76
2023/06/19 07:56:13;;;;;;;8.38;7.50;;;;;;;25.72;46.69;99388.22;5068938;28;20028;-76
2023/06/19 07:58:38;;;;;;;6.60;5.95;;;;;;;25.70;46.45;99379.56;5066376;28;20123;-76
2023/06/19 08:01:04;;;;;;;8.55;7.65;;;;;;;25.71;46.21;99370.38;5071776;28;20024;-75
2023/06/19 08:03:30;;;;;;;8.05;7.35;;;;;;;25.83;46.05;99379.75;5071120;28;20113;-75
2023/06/19 08:05:56;;;;;;;7.97;7.28;;;;;;;26.03;45.48;99403.16;5071658;28;20028;-75
2023/06/19 08:08:21;;;;;;;7.43;6.72;;;;;;;25.93;45.26;99384.28;5068727;28;20516;-75
2023/06/19 08:10:47;;;;;;;7.13;6.43;;;;;;;26.29;44.77;99433.53;5052072;28;20414;-76
2023/06/19 08:13:12;;;;;;;6.35;5.72;;;;;;;26.06;44.30;99390.97;5051478;28;20512;-75
2023/06/19 08:15:39;;;;;;;6.95;6.18;;;;;;;25.93;43.91;99368.84;5051460;28;20025;-75
2023/06/19 08:18:04;;;;;;;7.35;6.38;;;;;;;26.19;44.29;99391.13;5069480;28;20471;-75
2023/06/19 08:20:30;;;;;;;7.90;7.10;;;;;;;25.93;44.46;99343.69;5071708;28;20021;-75
2023/06/19 08:22:56;;;;;;;6.45;5.63;;;;;;;26.53;44.00;99429.00;5070284;28;20481;-75
2023/06/19 08:25:21;;;;;;;5.93;5.38;;;;;;;26.44;43.31;99413.66;5068618;28;20115;-75
2023/06/19 08:27:47;;;;;;;5.95;5.32;;;;;;;26.21;43.20;99375.41;5069367;28;20550;-75
2023/06/19 08:30:12;;;;;;;6.45;5.85;;;;;;;26.34;42.78;99382.06;5068491;28;20024;-75
2023/06/19 08:32:38;;;;;;;6.88;5.38;;;;;;;26.51;42.48;99406.81;5068613;28;20028;-76
2023/06/19 08:35:04;;;;;;;6.68;5.72;;;;;;;26.44;42.76;99379.28;5069412;28;20028;-76
2023/06/19 08:37:29;;;;;;;7.40;6.20;;;;;;;26.73;42.71;99413.63;5067155;28;20108;-76
2023/06/19 08:39:56;;;;;;;5.63;5.13;;;;;;;26.79;42.37;99416.03;5068897;28;20416;-76
2023/06/19 08:42:22;;;;;;;5.97;5.35;;;;;;;27.05;42.15;99451.00;5068669;28;20086;-73
2023/06/19 08:44:48;;;;;;;7.70;6.82;;;;;;;26.98;42.28;99418.81;5068760;28;20031;-74
2023/06/19 08:47:13;;;;;;;8.40;5.90;;;;;;;26.88;42.51;99397.25;5069869;28;20033;-73
2023/06/19 08:49:39;;;;;;;7.68;6.85;;;;;;;27.01;42.09;99396.56;5068827;28;20386;-75
2023/06/19 08:52:05;;;;;;;8.40;7.60;;;;;;;27.48;41.74;99465.38;5070911;28;20029;-75
2023/06/19 08:54:31;;;;;;;6.57;5.78;;;;;;;27.51;41.25;99468.34;5069644;28;20047;-78
2023/06/19 08:57:00;;;;;;;6.50;5.20;;;;;;;27.54;40.65;99453.38;5068356;28;20481;-75
2023/06/19 08:59:28;;;;;;;8.15;5.38;;;;;;;27.60;40.90;99457.66;5070536;28;20020;-76
2023/06/19 09:01:54;;;;;;;6.75;5.05;;;;;;;27.49;41.13;99418.16;5070861;28;20029;-74
2023/06/19 09:04:23;;;;;;;7.70;6.20;;;;;;;27.84;40.49;99449.47;5071022;28;20033;-76
2023/06/19 09:06:54;;;;;;;6.20;5.57;;;;;;;27.98;40.42;99447.63;5067710;28;20099;-75
2023/06/19 09:09:21;;;;;;;6.35;5.75;;;;;;;27.74;40.51;99385.31;5062794;28;20024;-77
2023/06/19 09:12:03;;;;;;;7.13;6.45;;;;;;;28.31;39.63;99443.06;5061037;28;20021;-74
2023/06/19 09:14:39;;;;;;;7.90;6.00;;;;;;;28.00;39.54;99396.56;5067682;28;20040;-76
2023/06/19 09:17:06;;;;;;;8.70;7.82;;;;;;;28.48;39.66;99440.59;5066869;28;20337;-74
2023/06/19 09:19:34;;;;;;;7.57;6.40;;;;;;;28.43;39.44;99410.81;5068336;28;20070;-76
2023/06/19 09:22:04;;;;;;;6.80;5.82;;;;;;;28.76;39.51;99436.03;5068479;28;20017;-74
2023/06/19 09:24:41;;;;;;;6.53;4.97;;;;;;;28.45;38.66;99358.91;5059229;28;20059;-75
2023/06/19 09:27:06;;;;;;;6.40;5.80;;;;;;;29.07;38.43;99427.34;5061727;28;20368;-74
2023/06/19 09:29:31;;;;;;;6.35;5.80;;;;;;;29.09;37.96;99415.03;5070273;28;20497;-76
2023/06/19 09:31:57;;;;;;;5.50;4.53;;;;;;;28.99;37.67;99385.34;5060340;28;20021;-74
2023/06/19 09:34:22;;;;;;;7.55;6.85;;;;;;;29.45;37.53;99429.84;5068530;28;20524;-74
2023/06/19 09:36:48;;;;;;;6.28;5.38;;;;;;;29.23;37.05;99366.09;5065895;28;20020;-76
2023/06/19 09:39:16;;;;;;;7.18;5.35;;;;;;;29.57;36.95;99409.16;5067181;28;20024;-77
2023/06/19 09:41:46;;;;;;;9.23;6.72;;;;;;;29.50;36.77;99367.97;5066802;28;20021;-76
2023/06/19 09:44:13;;;;;;;7.50;6.63;;;;;;;29.83;36.55;99394.97;5064182;28;20402;-76
2023/06/19 09:46:44;;;;;;;6.05;5.45;;;;;;;29.87;36.01;99382.34;5066762;28;20112;-77
2023/06/19 09:49:11;;;;;;;;;;;;;;;30.20;35.73;99419.13;5073594;28;20032;-74
2023/06/19 09:51:37;;;;;;;5.80;4.85;;;;;;;29.93;36.19;99362.88;5062502;28;20317;-74
2023/06/19 09:54:06;;;;;;;5.55;4.40;;;;;;;30.29;35.98;99419.19;5062511;28;20048;-74
2023/06/19 09:56:32;;;;;;;5.53;5.03;;;;;;;29.92;35.88;99388.47;5072398;28;20115;-74
2023/06/19 09:59:00;;;;;;;4.82;4.20;;;;;;;29.95;35.38;99373.44;5076697;28;20048;-75
2023/06/19 10:01:28;;;;;;;5.60;4.63;;;;;;;30.05;35.10;99370.50;5094234;28;20028;-78
2023/06/19 10:04:08;;;;;;;5.55;4.72;;;;;;;30.43;34.82;99406.28;5094443;28;20028;-76
2023/06/19 10:06:43;;;;;;;5.30;4.57;;;;;;;30.75;34.95;99405.22;5094576;28;20024;-77
2023/06/19 10:09:10;;;;;;;9.32;5.07;;;;;;;30.96;34.54;99405.44;5082704;28;20090;-76
2023/06/19 10:11:51;;;;;;;7.22;4.90;;;;;;;31.06;33.09;99387.97;5082195;28;20025;-75
2023/06/19 10:14:21;;;;;;;6.55;5.05;;;;;;;31.39;33.70;99404.78;5067969;28;20020;-75
2023/06/19 10:16:47;;;;;;;4.68;4.18;;;;;;;31.50;33.23;99397.91;5076469;28;20025;-74
2023/06/19 10:19:17;;;;;;;6.20;5.03;;;;;;;31.45;32.82;99368.03;5072915;28;20092;-74
2023/06/19 10:21:45;;;;;;;7.35;4.97;;;;;;;31.81;32.97;99393.13;5073382;28;20107;-74
2023/06/19 10:24:14;;;;;;;5.85;4.85;;;;;;;31.87;32.55;99369.97;5072329;28;20517;-74
2023/06/19 10:26:40;;;;;;;4.55;4.15;;;;;;;32.03;32.16;99356.66;5073208;28;20094;-74
2023/06/19 10:29:17;;;;;;;6.10;5.32;;;;;;;32.29;32.11;99380.41;5076308;28;20021;-75
2023/06/19 10:31:44;;;;;;;5.90;3.72;;;;;;;32.27;31.98;99374.44;5071512;28;20029;-74
2023/06/19 10:34:09;;;;;;;5.15;4.50;;;;;;;32.49;31.65;99366.03;5073148;28;20016;-74
2023/06/19 10:36:35;;;;;;;4.97;4.38;;;;;;;32.51;32.03;99378.22;5075699;28;20101;-74
2023/06/19 10:39:01;;;;;;;5.50;4.07;;;;;;;32.17;31.61;99329.94;5073992;28;20024;-73
2023/06/19 10:41:26;;;;;;;5.70;4.38;;;;;;;32.57;31.15;99346.03;5072177;28;20086;-74
2023/06/19 10:44:00;;;;;;;5.53;4.03;;;;;;;32.85;30.92;99371.88;5066416;28;20017;-75
2023/06/19 10:46:31;;;;;;;4.13;3.80;;;;;;;32.80;30.61;99347.44;5069064;28;20031;-75
2023/06/19 10:49:00;;;;;;;5.03;4.63;;;;;;;33.06;30.58;99360.97;5073582;28;20481;-73
2023/06/19 10:51:27;;;;;;;6.13;4.60;;;;;;;33.25;30.40;99376.13;5072851;28;20521;-76
2023/06/19 10:53:57;;;;;;;5.57;4.38;;;;;;;32.94;30.02;99303.44;5072693;28;20099;-76
2023/06/19 10:56:24;;;;;;;6.75;4.68;;;;;;;32.94;30.49;99347.19;5071514;28;20116;-75
2023/06/19 10:59:06;;;;;;;6.13;4.28;;;;;;;33.11;30.23;99357.22;5072660;28;20080;-73
2023/06/19 11:01:36;;;;;;;5.72;5.22;;;;;;;32.84;30.78;99320.22;5072860;28;20043;-74
2023/06/19 11:04:03;;;;;;;8.25;6.65;;;;;;;33.15;31.13;99360.91;5072357;28;20465;-74
2023/06/19 11:06:29;;;;;;;7.38;4.85;;;;;;;33.13;30.69;99328.41;5071861;28;20020;-74
2023/06/19 11:08:56;;;;;;;6.40;5.80;;;;;;;33.15;30.78;99303.44;5074449;28;20035;-74
2023/06/19 11:11:21;;;;;;;5.03;4.53;;;;;;;33.65;30.67;99368.31;5070520;28;20025;-76
2023/06/19 11:13:46;;;;;;;5.57;4.00;;;;;;;33.35;30.41;99353.88;5069941;28;20032;-74
2023/06/19 11:16:14;;;;;;;4.88;4.47;;;;;;;32.68;31.22;99289.06;5070156;28;20043;-73
2023/06/19 11:18:40;;;;;;;5.45;4.95;;;;;;;32.87;31.35;99370.72;5070413;28;20036;-75
2023/06/19 11:21:05;;;;;;;6.70;6.10;;;;;;;32.58;31.91;99365.97;5071424;28;20029;-75
2023/06/19 11:23:30;;;;;;;7.93;5.43;;;;;;;32.48;32.21;99317.94;5071361;28;20029;-76
2023/06/19 11:26:06;;;;;;;5.18;4.47;;;;;;;32.61;31.59;99363.41;5073171;28;20032;-75
2023/06/19 11:28:32;;;;;;;4.82;4.22;;;;;;;32.13;32.26;99323.53;5072214;28;20489;-75
2023/06/19 11:31:05;;;;;;;7.13;5.28;;;;;;;32.68;32.66;99360.16;5071238;28;20111;-74